createdAt,value
2023-02-08T00:00:10.885Z,7.42
2023-02-08T00:02:13.013Z,7.44
2023-02-08T00:04:15.064Z,7.39
2023-02-08T00:06:17.381Z,7.31
2023-02-08T00:08:19.449Z,7.34
2023-02-08T00:10:21.594Z,7.30
2023-02-08T00:12:23.937Z,7.30
2023-02-08T00:14:26.004Z,7.30
2023-02-08T00:16:28.061Z,7.33
2023-02-08T00:18:30.265Z,7.37
2023-02-08T00:20:32.415Z,7.38
2023-02-08T00:22:34.557Z,7.40
2023-02-08T00:24:36.521Z,7.32
2023-02-08T00:26:38.664Z,7.37
2023-02-08T00:28:40.725Z,7.29
2023-02-08T00:30:43.639Z,7.30
2023-02-08T00:32:45.689Z,7.34
2023-02-08T00:34:47.775Z,7.32
2023-02-08T00:36:49.812Z,7.33
2023-02-08T00:38:51.924Z,7.36
2023-02-08T00:40:54.002Z,7.29
2023-02-08T00:42:56.093Z,7.29
2023-02-08T00:44:58.625Z,7.30
2023-02-08T00:47:00.668Z,7.31
2023-02-08T00:49:02.905Z,7.33
2023-02-08T00:51:08.945Z,7.33
2023-02-08T00:53:10.981Z,7.35
2023-02-08T00:55:12.962Z,7.40
2023-02-08T00:57:15.462Z,7.42
2023-02-08T00:59:17.482Z,7.42
2023-02-08T01:01:19.582Z,7.46
2023-02-08T01:03:23.032Z,7.48
2023-02-08T01:05:25.025Z,7.49
2023-02-08T01:07:27.030Z,7.49
2023-02-08T01:09:29.025Z,7.49
2023-02-08T01:11:31.108Z,7.48
2023-02-08T01:13:33.127Z,7.52
2023-02-08T01:15:35.159Z,7.47
2023-02-08T01:17:37.194Z,7.46
2023-02-08T01:19:41.118Z,7.49
2023-02-08T01:21:44.397Z,7.46
2023-02-08T01:23:46.596Z,7.45
2023-02-08T01:25:48.620Z,7.44
2023-02-08T01:27:50.633Z,7.44
2023-02-08T01:29:52.959Z,7.46
2023-02-08T01:31:54.972Z,7.44
2023-02-08T01:33:58.399Z,7.47
2023-02-08T01:36:00.436Z,7.42
2023-02-08T01:38:02.467Z,7.34
2023-02-08T01:40:05.024Z,7.31
2023-02-08T01:42:07.025Z,7.23
2023-02-08T01:44:12.528Z,7.19
2023-02-08T01:46:14.435Z,7.16
2023-02-08T01:48:23.356Z,7.13
2023-02-08T01:50:32.254Z,7.13
2023-02-08T01:52:34.351Z,7.14
2023-02-08T01:54:43.359Z,7.11
2023-02-08T01:56:47.346Z,7.14
2023-02-08T01:58:55.012Z,7.15
2023-02-08T02:00:57.010Z,7.15
2023-02-08T02:03:00.984Z,7.12
2023-02-08T02:05:03.473Z,7.11
2023-02-08T02:07:06.418Z,7.08
2023-02-08T02:09:17.992Z,7.11
2023-02-08T02:11:20.714Z,7.07
2023-02-08T02:13:25.146Z,7.06
2023-02-08T02:15:27.168Z,7.07
2023-02-08T02:17:30.304Z,7.12
2023-02-08T02:19:35.734Z,7.06
2023-02-08T02:21:43.966Z,7.02
2023-02-08T02:23:50.399Z,7.04
2023-02-08T02:25:55.337Z,6.98
2023-02-08T02:28:03.595Z,7.01
2023-02-08T02:30:12.734Z,7.03
2023-02-08T02:32:24.183Z,7.02
2023-02-08T02:34:32.266Z,7.02
2023-02-08T02:36:40.504Z,7.01
2023-02-08T02:38:49.361Z,7.01
2023-02-08T02:41:06.474Z,7.00
2023-02-08T02:43:16.253Z,6.99
2023-02-08T02:45:27.308Z,6.95
2023-02-08T02:47:37.302Z,6.98
2023-02-08T02:49:51.523Z,6.93
2023-02-08T02:52:02.220Z,6.88
2023-02-08T02:54:11.071Z,6.87
2023-02-08T02:56:18.482Z,6.84
2023-02-08T02:58:24.048Z,6.82
2023-02-08T03:00:28.938Z,6.81
2023-02-08T03:02:30.904Z,6.77
2023-02-08T03:04:33.667Z,6.79
2023-02-08T03:06:46.874Z,6.75
2023-02-08T03:08:55.615Z,6.75
2023-02-08T03:11:00.974Z,6.72
2023-02-08T03:13:15.880Z,6.72
2023-02-08T03:15:22.481Z,6.69
2023-02-08T03:17:34.234Z,6.65
2023-02-08T03:19:43.921Z,6.64
2023-02-08T03:21:56.938Z,6.65
2023-02-08T03:24:05.092Z,6.61
2023-02-08T03:26:09.918Z,6.57
2023-02-08T03:28:20.742Z,6.62
2023-02-08T03:30:29.127Z,6.62
2023-02-08T03:32:40.638Z,6.58
2023-02-08T03:34:49.395Z,6.56
2023-02-08T03:36:58.385Z,6.49
2023-02-08T03:39:03.510Z,6.38
2023-02-08T03:41:10.344Z,6.41
2023-02-08T03:43:18.253Z,6.34
2023-02-08T03:45:27.208Z,6.41
2023-02-08T03:47:35.408Z,6.43
2023-02-08T03:49:39.521Z,6.45
2023-02-08T03:51:43.847Z,6.48
2023-02-08T03:53:46.887Z,6.47
2023-02-08T03:55:53.355Z,6.50
2023-02-08T03:57:59.934Z,6.49
2023-02-08T04:00:07.301Z,6.47
2023-02-08T04:02:14.268Z,6.44
2023-02-08T04:04:18.970Z,6.32
2023-02-08T04:06:22.169Z,6.35
2023-02-08T04:08:26.243Z,6.42
2023-02-08T04:10:28.190Z,6.32
2023-02-08T04:12:30.807Z,6.25
2023-02-08T04:14:32.736Z,6.19
2023-02-08T04:16:34.720Z,6.09
2023-02-08T04:18:36.676Z,6.06
2023-02-08T04:20:39.165Z,5.92
2023-02-08T04:22:41.373Z,5.80
2023-02-08T04:24:43.376Z,5.77
2023-02-08T04:26:45.396Z,5.79
2023-02-08T04:28:47.444Z,5.71
2023-02-08T04:30:49.771Z,5.72
2023-02-08T04:32:51.719Z,5.65
2023-02-08T04:34:53.734Z,5.70
2023-02-08T04:36:55.736Z,5.49
2023-02-08T04:38:58.824Z,5.68
2023-02-08T04:41:00.852Z,5.55
2023-02-08T04:43:02.887Z,5.51
2023-02-08T04:45:05.347Z,5.45
2023-02-08T04:47:07.296Z,5.31
2023-02-08T04:49:09.262Z,5.42
2023-02-08T04:51:11.279Z,5.43
2023-02-08T04:53:13.251Z,5.39
2023-02-08T04:55:15.359Z,5.51
2023-02-08T04:57:17.341Z,5.48
2023-02-08T04:59:20.011Z,5.54
2023-02-08T05:01:22.019Z,5.56
2023-02-08T05:03:24.012Z,5.59
2023-02-08T05:05:27.838Z,5.65
2023-02-08T05:07:29.756Z,5.61
2023-02-08T05:09:31.797Z,5.66
2023-02-08T05:11:34.225Z,5.69
2023-02-08T05:13:36.171Z,5.71
2023-02-08T05:15:38.108Z,5.76
2023-02-08T05:17:40.412Z,5.78
2023-02-08T05:19:42.478Z,5.73
2023-02-08T05:21:44.427Z,5.73
2023-02-08T05:23:46.966Z,5.73
2023-02-08T05:25:49.033Z,5.75
2023-02-08T05:27:51.132Z,5.71
2023-02-08T05:29:53.092Z,5.60
2023-02-08T05:31:55.157Z,5.51
2023-02-08T05:33:57.112Z,5.51
2023-02-08T05:35:59.111Z,5.55
2023-02-08T05:38:01.052Z,5.46
2023-02-08T05:40:03.291Z,5.46
2023-02-08T05:42:05.486Z,5.41
2023-02-08T05:44:07.619Z,5.33
2023-02-08T05:46:09.832Z,5.34
2023-02-08T05:48:11.734Z,5.38
2023-02-08T05:50:14.872Z,5.30
2023-02-08T05:52:16.834Z,5.34
2023-02-08T05:54:18.875Z,5.38
2023-02-08T05:56:21.421Z,5.29
2023-02-08T05:58:23.438Z,5.26
2023-02-08T06:00:25.548Z,5.18
2023-02-08T06:02:27.576Z,5.02
2023-02-08T06:04:29.634Z,5.03
2023-02-08T06:06:31.663Z,4.92
2023-02-08T06:08:33.995Z,4.84
2023-02-08T06:10:36.328Z,4.90
2023-02-08T06:12:38.194Z,4.83
2023-02-08T06:14:40.196Z,4.74
2023-02-08T06:16:42.372Z,4.72
2023-02-08T06:18:44.402Z,4.69
2023-02-08T06:20:46.295Z,4.67
2023-02-08T06:22:49.620Z,4.67
2023-02-08T06:24:51.622Z,4.58
2023-02-08T06:26:53.597Z,4.57
2023-02-08T06:28:55.668Z,4.59
2023-02-08T06:30:57.656Z,4.66
2023-02-08T06:32:59.621Z,4.71
2023-02-08T06:35:01.591Z,4.75
2023-02-08T06:37:05.654Z,4.78
2023-02-08T06:39:07.610Z,4.82
2023-02-08T06:41:09.792Z,4.77
2023-02-08T06:43:12.087Z,4.76
2023-02-08T06:45:14.239Z,4.81
2023-02-08T06:47:16.573Z,4.72
2023-02-08T06:49:19.004Z,4.80
2023-02-08T06:51:20.988Z,4.75
2023-02-08T06:53:23.152Z,4.80
2023-02-08T06:55:25.196Z,4.77
2023-02-08T06:57:27.133Z,4.71
2023-02-08T06:59:29.214Z,4.72
2023-02-08T07:01:31.236Z,4.74
2023-02-08T07:03:33.282Z,4.65
2023-02-08T07:05:36.136Z,4.68
2023-02-08T07:07:38.084Z,4.58
2023-02-08T07:09:40.391Z,4.68
2023-02-08T07:11:42.400Z,4.57
2023-02-08T07:13:48.278Z,4.61
2023-02-08T07:15:50.390Z,4.64
2023-02-08T07:17:52.485Z,4.58
2023-02-08T07:19:54.664Z,4.48
2023-02-08T07:21:57.415Z,4.54
2023-02-08T07:23:59.445Z,4.62
2023-02-08T07:26:04.887Z,4.63
2023-02-08T07:28:07.155Z,4.54
2023-02-08T07:30:10.171Z,4.58
2023-02-08T07:32:12.456Z,4.57
2023-02-08T07:34:14.653Z,4.55
2023-02-08T07:36:16.831Z,4.54
2023-02-08T07:38:20.707Z,4.49
2023-02-08T07:40:23.181Z,4.54
2023-02-08T07:42:26.556Z,4.43
2023-02-08T07:44:28.725Z,4.39
2023-02-08T07:46:31.076Z,4.38
2023-02-08T07:48:33.406Z,4.35
2023-02-08T07:50:35.661Z,4.28
2023-02-08T07:52:37.788Z,4.33
2023-02-08T07:54:39.933Z,4.31
2023-02-08T07:56:42.035Z,4.29
2023-02-08T07:58:44.341Z,4.27
2023-02-08T08:00:46.430Z,4.34
2023-02-08T08:02:51.161Z,4.29
2023-02-08T08:04:54.759Z,4.19
2023-02-08T08:06:57.088Z,4.29
2023-02-08T08:08:59.239Z,4.34
2023-02-08T08:11:03.723Z,4.42
2023-02-08T08:13:06.487Z,4.44
2023-02-08T08:15:09.057Z,4.47
2023-02-08T08:17:11.317Z,4.42
2023-02-08T08:19:13.487Z,4.50
2023-02-08T08:21:16.996Z,4.48
2023-02-08T08:23:19.922Z,4.48
2023-02-08T08:25:22.675Z,4.56
2023-02-08T08:27:25.093Z,4.56
2023-02-08T08:29:27.507Z,4.67
2023-02-08T08:31:31.159Z,4.71
2023-02-08T08:33:33.979Z,4.77
2023-02-08T08:35:36.813Z,4.80
2023-02-08T08:37:39.732Z,4.84
2023-02-08T08:39:42.566Z,4.86
2023-02-08T08:41:45.103Z,4.89
2023-02-08T08:43:47.673Z,4.91
2023-02-08T08:45:51.597Z,4.93
2023-02-08T08:47:55.428Z,4.99
2023-02-08T08:49:57.897Z,5.01
2023-02-08T08:52:00.435Z,5.02
2023-02-08T08:54:03.677Z,5.02
2023-02-08T08:56:06.685Z,5.06
2023-02-08T08:58:09.140Z,5.11
2023-02-08T09:00:12.936Z,5.12
2023-02-08T09:02:15.744Z,5.15
2023-02-08T09:04:18.617Z,5.15
2023-02-08T09:06:20.840Z,5.11
2023-02-08T09:08:23.500Z,5.18
2023-02-08T09:10:25.900Z,5.22
2023-02-08T09:12:29.025Z,5.18
2023-02-08T09:14:31.580Z,5.29
2023-02-08T09:16:33.980Z,5.26
2023-02-08T09:18:36.876Z,5.20
2023-02-08T09:20:39.729Z,5.25
2023-02-08T09:22:42.106Z,5.21
2023-02-08T09:24:44.240Z,5.21
2023-02-08T09:26:46.613Z,5.26
2023-02-08T09:28:49.178Z,5.40
2023-02-08T09:30:51.416Z,5.49
2023-02-08T09:32:53.955Z,5.60
2023-02-08T09:34:58.058Z,5.57
2023-02-08T09:37:00.209Z,5.64
2023-02-08T09:39:07.744Z,5.61
2023-02-08T09:41:16.400Z,5.70
2023-02-08T09:43:32.217Z,5.73
2023-02-08T09:45:47.891Z,5.73
2023-02-08T09:47:59.645Z,5.58
2023-02-08T09:50:05.251Z,5.68
2023-02-08T09:52:13.861Z,5.83
2023-02-08T09:54:19.972Z,5.74
2023-02-08T09:56:29.804Z,5.80
2023-02-08T09:58:38.392Z,5.90
2023-02-08T10:00:44.985Z,5.97
2023-02-08T10:02:49.193Z,5.84
2023-02-08T10:04:54.939Z,5.94
2023-02-08T10:06:57.408Z,6.05
2023-02-08T10:09:04.859Z,6.04
2023-02-08T10:11:13.175Z,6.21
2023-02-08T10:13:25.688Z,6.25
2023-02-08T10:15:42.290Z,6.38
2023-02-08T10:17:48.281Z,6.33
2023-02-08T10:19:54.988Z,6.47
2023-02-08T10:22:03.367Z,6.53
2023-02-08T10:24:20.250Z,6.62
2023-02-08T10:26:25.313Z,6.67
2023-02-08T10:28:33.861Z,6.48
2023-02-08T10:30:44.986Z,6.66
2023-02-08T10:32:51.068Z,6.72
2023-02-08T10:34:59.352Z,6.78
2023-02-08T10:37:06.489Z,6.75
2023-02-08T10:39:14.852Z,6.75
2023-02-08T10:41:23.948Z,6.83
2023-02-08T10:43:33.023Z,6.94
2023-02-08T10:45:42.220Z,7.08
2023-02-08T10:47:49.483Z,7.17
2023-02-08T10:49:58.795Z,7.23
2023-02-08T10:52:01.255Z,7.36
2023-02-08T10:54:03.634Z,7.24
2023-02-08T10:56:07.254Z,7.39
2023-02-08T10:58:16.982Z,7.51
2023-02-08T11:00:23.556Z,7.51
2023-02-08T11:02:31.889Z,7.42
2023-02-08T11:04:34.155Z,7.49
2023-02-08T11:06:37.842Z,7.50
2023-02-08T11:08:55.566Z,7.35
2023-02-08T11:11:01.393Z,7.63
2023-02-08T11:13:16.075Z,7.58
2023-02-08T11:15:23.552Z,7.68
2023-02-08T11:17:31.735Z,7.68
2023-02-08T11:19:42.983Z,7.65
2023-02-08T11:21:50.916Z,7.82
2023-02-08T11:23:55.814Z,7.87
2023-02-08T11:26:04.252Z,7.89
2023-02-08T11:28:25.829Z,8.06
2023-02-08T11:30:28.020Z,8.18
2023-02-08T11:32:30.331Z,8.30
2023-02-08T11:34:35.571Z,8.55
2023-02-08T11:36:47.286Z,8.75
2023-02-08T11:38:49.570Z,8.75
2023-02-08T11:40:53.776Z,8.59
2023-02-08T11:42:57.032Z,8.67
2023-02-08T11:45:00.292Z,8.71
2023-02-08T11:47:06.215Z,8.77
2023-02-08T11:49:23.657Z,9.06
2023-02-08T11:51:30.419Z,9.10
2023-02-08T11:53:37.909Z,9.10
2023-02-08T11:55:41.085Z,9.16
2023-02-08T11:57:49.644Z,9.25
2023-02-08T12:00:10.216Z,9.20
2023-02-08T12:02:18.759Z,9.35
2023-02-08T12:04:22.778Z,9.39
2023-02-08T12:06:31.240Z,9.47
2023-02-08T12:08:39.773Z,9.63
2023-02-08T12:10:46.451Z,9.64
2023-02-08T12:12:53.576Z,9.63
2023-02-08T12:14:59.307Z,9.57
2023-02-08T12:17:12.349Z,9.75
2023-02-08T12:19:27.612Z,9.91
2023-02-08T12:21:36.229Z,9.87
2023-02-08T12:23:42.917Z,9.97
2023-02-08T12:25:49.901Z,10.16
2023-02-08T12:27:56.926Z,10.04
2023-02-08T12:30:03.957Z,10.10
2023-02-08T12:32:24.919Z,10.31
2023-02-08T12:34:29.956Z,10.25
2023-02-08T12:36:33.233Z,10.33
2023-02-08T12:38:44.728Z,10.32
2023-02-08T12:40:53.324Z,10.32
2023-02-08T12:43:03.990Z,10.23
2023-02-08T12:45:17.828Z,10.34
2023-02-08T12:47:26.261Z,10.56
2023-02-08T12:49:47.210Z,10.52
2023-02-08T12:51:49.466Z,10.41
2023-02-08T12:53:58.063Z,10.32
2023-02-08T12:56:07.144Z,10.38
2023-02-08T12:58:12.724Z,10.46
2023-02-08T13:00:21.204Z,10.51
2023-02-08T13:02:29.835Z,10.52
2023-02-08T13:04:38.769Z,10.66
2023-02-08T13:06:45.249Z,10.67
2023-02-08T13:08:52.701Z,10.74
2023-02-08T13:11:17.864Z,10.83
2023-02-08T13:13:26.805Z,10.84
2023-02-08T13:15:33.633Z,11.02
2023-02-08T13:17:39.751Z,11.07
2023-02-08T13:19:59.790Z,11.27
2023-02-08T13:22:05.929Z,11.22
2023-02-08T13:24:23.408Z,11.49
2023-02-08T13:26:31.778Z,11.52
2023-02-08T13:28:34.735Z,11.65
2023-02-08T13:30:40.286Z,11.51
2023-02-08T13:32:46.989Z,11.47
2023-02-08T13:34:55.604Z,11.47
2023-02-08T13:37:02.195Z,11.58
2023-02-08T13:39:08.348Z,11.71
2023-02-08T13:41:16.613Z,11.61
2023-02-08T13:43:34.734Z,11.63
2023-02-08T13:45:44.449Z,11.78
2023-02-08T13:47:49.569Z,11.88
2023-02-08T13:49:54.162Z,11.88
2023-02-08T13:51:56.402Z,11.89
2023-02-08T13:54:00.755Z,12.05
2023-02-08T13:56:06.022Z,12.22
2023-02-08T13:58:14.644Z,12.22
2023-02-08T14:00:25.192Z,12.27
2023-02-08T14:02:28.658Z,12.45
2023-02-08T14:04:35.099Z,12.30
2023-02-08T14:06:41.413Z,12.38
2023-02-08T14:08:52.370Z,12.27
2023-02-08T14:11:01.275Z,12.32
2023-02-08T14:13:14.276Z,12.23
2023-02-08T14:15:17.172Z,12.06
2023-02-08T14:17:27.815Z,12.19
2023-02-08T14:19:30.916Z,12.18
2023-02-08T14:21:38.612Z,11.97
2023-02-08T14:23:41.204Z,12.04
2023-02-08T14:25:47.604Z,11.98
2023-02-08T14:27:54.839Z,11.98
2023-02-08T14:30:02.872Z,12.01
2023-02-08T14:32:05.940Z,12.00
2023-02-08T14:34:22.787Z,12.09
2023-02-08T14:36:29.966Z,12.01
2023-02-08T14:38:38.364Z,12.21
2023-02-08T14:40:49.091Z,11.96
2023-02-08T14:42:57.616Z,12.05
2023-02-08T14:45:02.082Z,12.17
2023-02-08T14:47:10.690Z,12.05
2023-02-08T14:49:16.194Z,12.07
2023-02-08T14:51:25.342Z,11.98
2023-02-08T14:53:34.874Z,12.10
2023-02-08T14:55:46.045Z,12.25
2023-02-08T14:57:49.333Z,12.32
2023-02-08T14:59:54.357Z,12.20
2023-02-08T15:02:00.864Z,12.16
2023-02-08T15:04:04.079Z,12.03
2023-02-08T15:06:12.640Z,11.87
2023-02-08T15:08:21.896Z,11.93
2023-02-08T15:10:26.376Z,11.85
2023-02-08T15:12:32.786Z,11.74
2023-02-08T15:14:37.135Z,11.87
2023-02-08T15:16:44.124Z,11.96
2023-02-08T15:18:49.449Z,12.10
2023-02-08T15:20:59.655Z,12.19
2023-02-08T15:23:06.687Z,12.04
2023-02-08T15:25:22.302Z,12.20
2023-02-08T15:27:27.732Z,12.10
2023-02-08T15:29:43.986Z,11.97
2023-02-08T15:31:47.845Z,11.99
2023-02-08T15:33:52.857Z,12.12
2023-02-08T15:36:00.488Z,12.00
2023-02-08T15:38:05.917Z,12.05
2023-02-08T15:40:22.923Z,12.02
2023-02-08T15:42:29.339Z,11.69
2023-02-08T15:44:35.183Z,11.69
2023-02-08T15:46:39.212Z,11.51
2023-02-08T15:48:45.028Z,11.27
2023-02-08T15:50:47.686Z,11.32
2023-02-08T15:52:58.177Z,11.33
2023-02-08T15:55:00.618Z,11.22
2023-02-08T15:57:06.947Z,11.15
2023-02-08T15:59:21.348Z,11.14
2023-02-08T16:01:25.741Z,11.15
2023-02-08T16:03:30.030Z,11.08
2023-02-08T16:05:34.061Z,11.15
2023-02-08T16:07:40.153Z,11.20
2023-02-08T16:09:48.047Z,11.22
2023-02-08T16:11:50.933Z,11.18
2023-02-08T16:13:57.805Z,10.96
2023-02-08T16:16:16.985Z,11.07
2023-02-08T16:18:30.287Z,10.90
2023-02-08T16:20:35.549Z,10.88
2023-02-08T16:22:38.221Z,10.87
2023-02-08T16:24:40.757Z,10.80
2023-02-08T16:26:45.365Z,10.70
2023-02-08T16:28:53.991Z,10.69
2023-02-08T16:30:58.740Z,10.72
2023-02-08T16:33:07.509Z,10.75
2023-02-08T16:35:14.064Z,10.80
2023-02-08T16:37:22.960Z,10.75
2023-02-08T16:39:31.663Z,10.63
2023-02-08T16:42:00.889Z,10.69
2023-02-08T16:44:12.396Z,10.52
2023-02-08T16:46:17.239Z,10.47
2023-02-08T16:48:27.759Z,10.35
2023-02-08T16:50:31.831Z,10.39
2023-02-08T16:52:35.094Z,10.30
2023-02-08T16:54:37.739Z,10.39
2023-02-08T16:56:42.139Z,10.29
2023-02-08T16:58:44.788Z,10.37
2023-02-08T17:00:47.416Z,10.40
2023-02-08T17:02:51.207Z,10.43
2023-02-08T17:04:55.177Z,10.45
2023-02-08T17:06:57.656Z,10.44
2023-02-08T17:09:01.672Z,10.47
2023-02-08T17:11:04.316Z,10.31
2023-02-08T17:13:19.937Z,10.20
2023-02-08T17:15:25.273Z,10.08
2023-02-08T17:17:28.239Z,10.02
2023-02-08T17:19:30.870Z,10.01
2023-02-08T17:21:34.162Z,10.05
2023-02-08T17:23:36.871Z,9.83
2023-02-08T17:25:39.895Z,9.94
2023-02-08T17:27:42.469Z,9.83
2023-02-08T17:29:45.206Z,9.78
2023-02-08T17:31:48.692Z,9.87
2023-02-08T17:33:51.662Z,9.85
2023-02-08T17:35:54.377Z,9.92
2023-02-08T17:37:58.878Z,9.81
2023-02-08T17:40:01.356Z,9.78
2023-02-08T17:42:04.054Z,9.59
2023-02-08T17:44:07.493Z,9.65
2023-02-08T17:46:16.266Z,9.59
2023-02-08T17:48:19.743Z,9.63
2023-02-08T17:50:23.926Z,9.34
2023-02-08T17:52:26.560Z,9.46
2023-02-08T17:54:29.117Z,9.34
2023-02-08T17:56:35.756Z,9.48
2023-02-08T17:58:39.204Z,9.40
2023-02-08T18:00:42.433Z,9.36
2023-02-08T18:02:47.768Z,9.39
2023-02-08T18:04:50.389Z,9.34
2023-02-08T18:06:53.047Z,9.40
2023-02-08T18:08:56.157Z,9.40
2023-02-08T18:11:04.332Z,9.34
2023-02-08T18:13:07.220Z,9.45
2023-02-08T18:15:13.991Z,9.47
2023-02-08T18:17:16.538Z,9.45
2023-02-08T18:19:19.852Z,9.50
2023-02-08T18:21:26.021Z,9.45
2023-02-08T18:23:29.096Z,9.35
2023-02-08T18:25:32.391Z,9.32
2023-02-08T18:27:34.947Z,9.31
2023-02-08T18:29:37.591Z,9.36
2023-02-08T18:31:41.571Z,9.29
2023-02-08T18:33:44.787Z,9.19
2023-02-08T18:35:49.579Z,9.17
2023-02-08T18:37:53.778Z,9.08
2023-02-08T18:39:56.219Z,9.08
2023-02-08T18:41:58.796Z,9.10
2023-02-08T18:44:02.788Z,9.00
2023-02-08T18:46:10.222Z,9.07
2023-02-08T18:48:13.658Z,9.07
2023-02-08T18:50:16.461Z,9.04
2023-02-08T18:52:18.780Z,9.04
2023-02-08T18:54:21.989Z,8.91
2023-02-08T18:56:26.837Z,8.90
2023-02-08T18:58:29.824Z,8.99
2023-02-08T19:00:32.414Z,9.02
2023-02-08T19:02:35.926Z,8.98
2023-02-08T19:04:39.894Z,9.04
2023-02-08T19:06:42.373Z,8.99
2023-02-08T19:08:45.937Z,9.07
2023-02-08T19:10:48.209Z,9.05
2023-02-08T19:12:50.943Z,9.01
2023-02-08T19:14:53.196Z,8.93
2023-02-08T19:16:56.295Z,8.97
2023-02-08T19:19:01.335Z,8.93
2023-02-08T19:21:06.366Z,8.93
2023-02-08T19:23:08.854Z,8.93
2023-02-08T19:25:11.326Z,8.65
2023-02-08T19:27:13.901Z,8.65
2023-02-08T19:29:22.243Z,8.52
2023-02-08T19:31:26.458Z,8.53
2023-02-08T19:33:28.991Z,8.55
2023-02-08T19:35:31.334Z,8.50
2023-02-08T19:37:33.733Z,8.46
2023-02-08T19:39:35.961Z,8.49
2023-02-08T19:41:39.680Z,8.59
2023-02-08T19:43:41.996Z,8.64
2023-02-08T19:45:45.319Z,8.53
2023-02-08T19:47:51.672Z,8.51
2023-02-08T19:49:55.234Z,8.38
2023-02-08T19:51:57.645Z,8.55
2023-02-08T19:54:01.164Z,8.57
2023-02-08T19:56:06.781Z,8.59
2023-02-08T19:58:10.811Z,8.61
2023-02-08T20:00:23.493Z,8.46
2023-02-08T20:02:27.817Z,8.47
2023-02-08T20:04:30.367Z,8.24
2023-02-08T20:06:36.063Z,8.20
2023-02-08T20:08:38.908Z,8.19
2023-02-08T20:10:42.664Z,8.20
2023-02-08T20:12:45.384Z,8.17
2023-02-08T20:14:48.632Z,8.16
2023-02-08T20:16:51.707Z,8.16
2023-02-08T20:18:56.354Z,7.96
2023-02-08T20:21:02.323Z,8.04
2023-02-08T20:23:14.091Z,8.05
2023-02-08T20:25:20.746Z,8.11
2023-02-08T20:27:23.883Z,8.03
2023-02-08T20:29:28.224Z,8.13
2023-02-08T20:31:33.908Z,8.01
2023-02-08T20:33:36.337Z,8.11
2023-02-08T20:35:38.660Z,8.13
2023-02-08T20:37:41.870Z,8.23
2023-02-08T20:39:44.076Z,8.18
2023-02-08T20:41:47.647Z,8.18
2023-02-08T20:43:50.348Z,8.25
2023-02-08T20:45:52.601Z,8.21
2023-02-08T20:47:55.089Z,8.07
2023-02-08T20:49:58.436Z,8.03
2023-02-08T20:52:00.902Z,7.97
2023-02-08T20:54:04.493Z,8.00
2023-02-08T20:56:09.691Z,7.86
2023-02-08T20:58:11.750Z,7.91
2023-02-08T21:00:14.774Z,7.84
2023-02-08T21:02:24.589Z,7.82
2023-02-08T21:04:27.467Z,7.75
2023-02-08T21:06:34.121Z,7.65
2023-02-08T21:08:36.375Z,7.64
2023-02-08T21:10:38.665Z,7.55
2023-02-08T21:12:40.839Z,7.46
2023-02-08T21:14:44.749Z,7.46
2023-02-08T21:16:49.053Z,7.52
2023-02-08T21:18:51.210Z,7.68
2023-02-08T21:20:54.067Z,7.72
2023-02-08T21:22:56.540Z,7.78
2023-02-08T21:24:58.701Z,7.69
2023-02-08T21:27:01.610Z,7.78
2023-02-08T21:29:06.615Z,7.89
2023-02-08T21:31:13.270Z,7.89
2023-02-08T21:33:16.504Z,7.89
2023-02-08T21:35:21.003Z,7.81
2023-02-08T21:37:24.552Z,7.88
2023-02-08T21:39:27.175Z,7.98
2023-02-08T21:41:32.797Z,8.00
2023-02-08T21:43:36.622Z,7.96
2023-02-08T21:45:39.590Z,7.99
2023-02-08T21:47:42.286Z,7.96
2023-02-08T21:49:47.617Z,7.92
2023-02-08T21:51:52.889Z,7.89
2023-02-08T21:53:58.209Z,7.95
2023-02-08T21:56:00.449Z,7.84
2023-02-08T21:58:02.769Z,7.85
2023-02-08T22:00:08.730Z,7.86
2023-02-08T22:02:16.425Z,7.79
2023-02-08T22:04:18.470Z,7.74
2023-02-08T22:06:20.540Z,7.64
2023-02-08T22:08:22.696Z,7.70
2023-02-08T22:10:27.500Z,7.76
2023-02-08T22:12:29.566Z,7.79
2023-02-08T22:14:35.284Z,7.67
2023-02-08T22:16:37.460Z,7.73
2023-02-08T22:18:41.542Z,7.70
2023-02-08T22:20:45.126Z,7.46
2023-02-08T22:22:47.396Z,7.44
2023-02-08T22:24:49.435Z,7.44
2023-02-08T22:26:51.402Z,7.38
2023-02-08T22:28:54.053Z,7.43
2023-02-08T22:30:56.157Z,7.35
2023-02-08T22:32:58.213Z,7.30
2023-02-08T22:35:00.310Z,7.38
2023-02-08T22:37:04.362Z,7.40
2023-02-08T22:39:07.249Z,7.36
2023-02-08T22:41:11.271Z,7.41
2023-02-08T22:43:13.339Z,7.41
2023-02-08T22:45:15.384Z,7.36
2023-02-08T22:47:17.425Z,7.40
2023-02-08T22:49:19.564Z,7.47
2023-02-08T22:51:23.697Z,7.44
2023-02-08T22:53:26.644Z,7.36
2023-02-08T22:55:28.891Z,7.37
2023-02-08T22:57:32.232Z,7.36
2023-02-08T22:59:34.249Z,7.43
2023-02-08T23:01:36.989Z,7.36
2023-02-08T23:03:39.379Z,7.21
2023-02-08T23:05:43.024Z,7.28
2023-02-08T23:07:45.179Z,7.34
2023-02-08T23:09:47.339Z,7.31
2023-02-08T23:11:49.369Z,7.27
2023-02-08T23:13:51.375Z,7.24
2023-02-08T23:15:53.384Z,7.26
2023-02-08T23:17:55.707Z,7.16
2023-02-08T23:19:57.785Z,7.11
2023-02-08T23:22:00.565Z,7.00
2023-02-08T23:24:02.592Z,6.97
2023-02-08T23:26:07.534Z,7.13
2023-02-08T23:28:11.434Z,7.13
2023-02-08T23:30:13.943Z,7.17
2023-02-08T23:32:15.920Z,7.14
2023-02-08T23:34:19.130Z,7.16
2023-02-08T23:36:23.425Z,7.13
2023-02-08T23:38:25.711Z,7.13
2023-02-08T23:40:27.707Z,7.16
2023-02-08T23:42:29.659Z,7.18
2023-02-08T23:44:31.751Z,7.21
2023-02-08T23:46:33.841Z,7.20
2023-02-08T23:48:38.431Z,7.16
2023-02-08T23:50:41.275Z,7.07
2023-02-08T23:52:43.195Z,7.14
2023-02-08T23:54:45.358Z,7.11
2023-02-08T23:56:47.409Z,7.17
2023-02-08T23:58:51.727Z,7.07
